Urb Victor Rojas 1, Puerto Rico
Current Conditions -  °F | °C
As of 3:50 PM on Saturday 20 Dec 2014 (Local Time) from TJBQ Reporting Station
Scattered Clouds Scattered Clouds  
Wind Chill: 82°   Ceiling: Unl
Heat Index: 86°   Visibility: 10mi
Dew Point: 70°   Wind: 16mph
Humidity: 66%   Direction: 90°E
Pressure: 29.98"   Gusts: 24mph
Location:  18.4739°N, 66.7295°W
Report Text: TJBQ 201950Z 09014G21KT 10SM SCT080 28/21 A2998 RMK RWY08 ATIS P
Loading
Personal Weather Stations






























Interactive Weather Map New forecast layout! Learn more

10-Day Weather Forecast

Advertisements
Track Severe Weather on mobile